sensor_id;sensor_type;location;lat;lon;timestamp;pressure;altitude;pressure_sealevel;temperature;humidity
70976;BME280;58635;51.198;6.010;2022-07-22T00:02:03;101989.38;;;21.40;60.36
70976;BME280;58635;51.198;6.010;2022-07-22T00:04:29;101991.78;;;21.41;60.37
70976;BME280;58635;51.198;6.010;2022-07-22T00:06:54;101989.13;;;21.41;60.28
70976;BME280;58635;51.198;6.010;2022-07-22T00:09:20;101992.81;;;21.40;60.45
70976;BME280;58635;51.198;6.010;2022-07-22T00:11:45;101992.81;;;21.40;60.30
70976;BME280;58635;51.198;6.010;2022-07-22T00:14:10;101992.56;;;21.42;60.18
70976;BME280;58635;51.198;6.010;2022-07-22T00:16:38;101996.00;;;21.42;60.37
70976;BME280;58635;51.198;6.010;2022-07-22T00:19:03;101990.97;;;21.41;60.39
70976;BME280;58635;51.198;6.010;2022-07-22T00:21:29;101995.44;;;21.40;60.30
70976;BME280;58635;51.198;6.010;2022-07-22T00:23:54;101994.41;;;21.41;60.35
70976;BME280;58635;51.198;6.010;2022-07-22T00:26:19;101996.47;;;21.39;60.30
70976;BME280;58635;51.198;6.010;2022-07-22T00:28:45;101996.47;;;21.39;60.27
70976;BME280;58635;51.198;6.010;2022-07-22T00:31:10;101998.53;;;21.37;60.26
70976;BME280;58635;51.198;6.010;2022-07-22T00:33:36;101998.78;;;21.36;60.40
70976;BME280;58635;51.198;6.010;2022-07-22T00:36:01;101995.25;;;21.30;60.50
70976;BME280;58635;51.198;6.010;2022-07-22T00:38:26;101995.72;;;21.27;60.38
70976;BME280;58635;51.198;6.010;2022-07-22T00:40:52;101995.13;;;21.25;60.60
70976;BME280;58635;51.198;6.010;2022-07-22T00:43:17;101990.13;;;21.23;60.62
70976;BME280;58635;51.198;6.010;2022-07-22T00:45:43;101991.94;;;21.23;60.56
70976;BME280;58635;51.198;6.010;2022-07-22T00:48:08;101990.13;;;21.23;60.68
70976;BME280;58635;51.198;6.010;2022-07-22T00:50:34;101989.00;;;21.19;60.73
70976;BME280;58635;51.198;6.010;2022-07-22T00:53:00;101983.38;;;21.16;60.68
70976;BME280;58635;51.198;6.010;2022-07-22T00:55:25;101981.31;;;21.18;61.00
70976;BME280;58635;51.198;6.010;2022-07-22T00:57:51;101980.50;;;21.17;61.08
70976;BME280;58635;51.198;6.010;2022-07-22T01:00:19;101980.63;;;21.22;60.63
70976;BME280;58635;51.198;6.010;2022-07-22T01:02:45;101979.13;;;21.26;60.50
70976;BME280;58635;51.198;6.010;2022-07-22T01:05:11;101977.53;;;21.25;60.57
70976;BME280;58635;51.198;6.010;2022-07-22T01:07:37;101983.13;;;21.29;60.46
70976;BME280;58635;51.198;6.010;2022-07-22T01:10:03;101980.25;;;21.30;60.63
70976;BME280;58635;51.198;6.010;2022-07-22T01:12:29;101971.34;;;21.32;60.62
70976;BME280;58635;51.198;6.010;2022-07-22T01:14:54;101968.72;;;21.32;60.62
70976;BME280;58635;51.198;6.010;2022-07-22T01:17:20;101976.81;;;21.30;60.61
70976;BME280;58635;51.198;6.010;2022-07-22T01:19:45;101969.41;;;21.27;60.74
70976;BME280;58635;51.198;6.010;2022-07-22T01:22:11;101974.31;;;21.23;60.60
70976;BME280;58635;51.198;6.010;2022-07-22T01:24:36;101968.25;;;21.23;60.62
70976;BME280;58635;51.198;6.010;2022-07-22T01:27:02;101974.31;;;21.23;60.83
70976;BME280;58635;51.198;6.010;2022-07-22T01:29:27;101967.81;;;21.26;60.49
70976;BME280;58635;51.198;6.010;2022-07-22T01:31:53;101962.31;;;21.27;60.69
70976;BME280;58635;51.198;6.010;2022-07-22T02:38:45;101969.41;;;21.27;59.90
70976;BME280;58635;51.198;6.010;2022-07-22T02:41:11;101971.00;;;21.28;59.85
70976;BME280;58635;51.198;6.010;2022-07-22T02:43:36;101960.81;;;21.32;59.64
70976;BME280;58635;51.198;6.010;2022-07-22T02:46:02;101967.09;;;21.30;59.39
70976;BME280;58635;51.198;6.010;2022-07-22T02:48:27;101961.63;;;21.32;59.41
70976;BME280;58635;51.198;6.010;2022-07-22T02:50:53;101957.16;;;21.33;59.28
70976;BME280;58635;51.198;6.010;2022-07-22T02:53:18;101950.06;;;21.33;59.33
70976;BME280;58635;51.198;6.010;2022-07-22T02:55:44;101951.09;;;21.32;59.21
70976;BME280;58635;51.198;6.010;2022-07-22T02:58:10;101943.91;;;21.27;59.15
70976;BME280;58635;51.198;6.010;2022-07-22T03:00:36;101937.25;;;21.25;59.56
70976;BME280;58635;51.198;6.010;2022-07-22T03:03:03;101944.34;;;21.24;59.47
70976;BME280;58635;51.198;6.010;2022-07-22T03:05:29;101948.50;;;21.20;59.37
70976;BME280;58635;51.198;6.010;2022-07-22T03:07:54;101944.25;;;21.19;59.55
70976;BME280;58635;51.198;6.010;2022-07-22T03:10:19;101943.91;;;21.16;59.60
70976;BME280;58635;51.198;6.010;2022-07-22T03:12:45;101946.00;;;21.14;59.74
70976;BME280;58635;51.198;6.010;2022-07-22T03:15:10;101940.84;;;21.07;59.72
70976;BME280;58635;51.198;6.010;2022-07-22T03:17:37;101943.09;;;20.98;60.02
70976;BME280;58635;51.198;6.010;2022-07-22T03:20:04;101939.41;;;20.99;59.84
70976;BME280;58635;51.198;6.010;2022-07-22T03:22:30;101947.53;;;20.98;59.78
70976;BME280;58635;51.198;6.010;2022-07-22T03:24:56;101949.47;;;21.02;59.99
70976;BME280;58635;51.198;6.010;2022-07-22T03:27:21;101941.09;;;21.06;59.95
70976;BME280;58635;51.198;6.010;2022-07-22T03:29:47;101940.06;;;21.07;59.73
70976;BME280;58635;51.198;6.010;2022-07-22T03:32:12;101939.06;;;21.08;59.71
70976;BME280;58635;51.198;6.010;2022-07-22T03:34:38;101937.78;;;21.10;59.61
70976;BME280;58635;51.198;6.010;2022-07-22T03:37:03;101933.88;;;21.13;59.47
70976;BME280;58635;51.198;6.010;2022-07-22T03:39:28;101932.97;;;21.07;59.47
70976;BME280;58635;51.198;6.010;2022-07-22T03:41:54;101923.06;;;20.97;59.67
70976;BME280;58635;51.198;6.010;2022-07-22T03:44:19;101930.63;;;20.94;59.64
70976;BME280;58635;51.198;6.010;2022-07-22T03:46:45;101939.53;;;20.93;59.88
70976;BME280;58635;51.198;6.010;2022-07-22T03:49:10;101930.63;;;20.94;59.75
70976;BME280;58635;51.198;6.010;2022-07-22T03:51:36;101933.00;;;20.95;59.67
70976;BME280;58635;51.198;6.010;2022-07-22T03:54:01;101934.84;;;20.95;59.65
70976;BME280;58635;51.198;6.010;2022-07-22T03:56:26;101936.47;;;20.96;59.57
70976;BME280;58635;51.198;6.010;2022-07-22T03:58:52;101945.47;;;21.00;59.51
70976;BME280;58635;51.198;6.010;2022-07-22T04:01:17;101937.34;;;21.01;59.57
70976;BME280;58635;51.198;6.010;2022-07-22T04:03:43;101933.91;;;21.01;59.76
70976;BME280;58635;51.198;6.010;2022-07-22T04:06:08;101938.69;;;21.04;59.75
70976;BME280;58635;51.198;6.010;2022-07-22T04:08:33;101943.28;;;21.09;59.57
70976;BME280;58635;51.198;6.010;2022-07-22T04:10:59;101942.78;;;21.12;59.30
70976;BME280;58635;51.198;6.010;2022-07-22T04:13:24;101944.06;;;21.09;59.24
70976;BME280;58635;51.198;6.010;2022-07-22T04:15:50;101943.97;;;21.04;59.44
70976;BME280;58635;51.198;6.010;2022-07-22T04:18:16;101943.41;;;21.02;59.41
70976;BME280;58635;51.198;6.010;2022-07-22T04:20:42;101948.91;;;21.00;59.21
70976;BME280;58635;51.198;6.010;2022-07-22T04:23:08;101950.19;;;20.98;59.30
70976;BME280;58635;51.198;6.010;2022-07-22T04:25:33;101954.03;;;20.95;59.29
70976;BME280;58635;51.198;6.010;2022-07-22T04:27:59;101953.47;;;20.93;59.31
70976;BME280;58635;51.198;6.010;2022-07-22T04:30:24;101956.91;;;20.94;59.13
70976;BME280;58635;51.198;6.010;2022-07-22T04:32:49;101957.63;;;20.89;59.19
70976;BME280;58635;51.198;6.010;2022-07-22T04:35:15;101961.06;;;20.90;59.22
70976;BME280;58635;51.198;6.010;2022-07-22T04:37:40;101959.47;;;20.89;59.20
70976;BME280;58635;51.198;6.010;2022-07-22T04:40:06;101953.72;;;20.92;59.40
70976;BME280;58635;51.198;6.010;2022-07-22T04:42:32;101954.03;;;20.95;58.99
70976;BME280;58635;51.198;6.010;2022-07-22T04:44:57;101958.63;;;21.00;59.06
70976;BME280;58635;51.198;6.010;2022-07-22T04:47:22;101958.63;;;21.00;59.15
70976;BME280;58635;51.198;6.010;2022-07-22T04:49:48;101956.56;;;21.02;59.16
70976;BME280;58635;51.198;6.010;2022-07-22T04:52:13;101954.72;;;21.02;59.17
70976;BME280;58635;51.198;6.010;2022-07-22T04:54:38;101944.69;;;20.99;59.07
70976;BME280;58635;51.198;6.010;2022-07-22T04:57:04;101946.28;;;21.00;59.40
70976;BME280;58635;51.198;6.010;2022-07-22T04:59:29;101949.22;;;21.04;59.26
70976;BME280;58635;51.198;6.010;2022-07-22T05:01:54;101943.72;;;21.06;59.14
70976;BME280;58635;51.198;6.010;2022-07-22T05:04:20;101942.69;;;21.07;59.02
70976;BME280;58635;51.198;6.010;2022-07-22T05:06:45;101938.81;;;21.09;59.04
70976;BME280;58635;51.198;6.010;2022-07-22T05:09:11;101938.22;;;21.07;59.19
70976;BME280;58635;51.198;6.010;2022-07-22T05:11:36;101934.78;;;21.07;59.28
70976;BME280;58635;51.198;6.010;2022-07-22T05:14:01;101938.00;;;21.09;59.25
70976;BME280;58635;51.198;6.010;2022-07-22T05:16:27;101936.03;;;21.16;59.03
70976;BME280;58635;51.198;6.010;2022-07-22T05:18:52;101930.88;;;21.21;59.06
70976;BME280;58635;51.198;6.010;2022-07-22T05:21:18;101935.19;;;21.27;58.96
70976;BME280;58635;51.198;6.010;2022-07-22T05:23:43;101929.81;;;21.34;58.89
70976;BME280;58635;51.198;6.010;2022-07-22T05:26:08;101925.41;;;21.39;58.62
70976;BME280;58635;51.198;6.010;2022-07-22T05:28:34;101928.94;;;21.45;59.04
70976;BME280;58635;51.198;6.010;2022-07-22T05:31:00;101924.00;;;21.48;58.74
70976;BME280;58635;51.198;6.010;2022-07-22T05:33:25;101928.22;;;21.49;58.63
70976;BME280;58635;51.198;6.010;2022-07-22T05:35:51;101927.97;;;21.51;58.69
70976;BME280;58635;51.198;6.010;2022-07-22T05:38:17;101928.28;;;21.54;58.38
70976;BME280;58635;51.198;6.010;2022-07-22T05:40:42;101928.88;;;21.56;58.32
70976;BME280;58635;51.198;6.010;2022-07-22T05:43:07;101929.91;;;21.55;58.63
70976;BME280;58635;51.198;6.010;2022-07-22T05:45:33;101933.25;;;21.51;57.89
70976;BME280;58635;51.198;6.010;2022-07-22T05:47:58;101936.59;;;21.46;57.85
70976;BME280;58635;51.198;6.010;2022-07-22T05:50:24;101932.50;;;21.39;57.79
70976;BME280;58635;51.198;6.010;2022-07-22T05:52:49;101929.56;;;21.35;58.06
70976;BME280;58635;51.198;6.010;2022-07-22T05:55:15;101925.91;;;21.36;57.72
70976;BME280;58635;51.198;6.010;2022-07-22T05:57:40;101933.31;;;21.39;57.43
70976;BME280;58635;51.198;6.010;2022-07-22T06:00:06;101929.19;;;21.43;57.38
70976;BME280;58635;51.198;6.010;2022-07-22T06:02:32;101940.59;;;21.49;57.24
70976;BME280;58635;51.198;6.010;2022-07-22T06:04:57;101938.50;;;21.51;57.16
70976;BME280;58635;51.198;6.010;2022-07-22T06:07:26;101937.00;;;21.55;57.22
70976;BME280;58635;51.198;6.010;2022-07-22T06:09:51;101934.38;;;21.55;57.01
70976;BME280;58635;51.198;6.010;2022-07-22T06:12:17;101939.72;;;21.60;57.17
70976;BME280;58635;51.198;6.010;2022-07-22T06:14:42;101943.47;;;21.64;57.16
70976;BME280;58635;51.198;6.010;2022-07-22T06:17:08;101939.09;;;21.70;56.94
70976;BME280;58635;51.198;6.010;2022-07-22T06:19:33;101942.03;;;21.73;56.88
70976;BME280;58635;51.198;6.010;2022-07-22T06:21:58;101947.63;;;21.77;56.91
70976;BME280;58635;51.198;6.010;2022-07-22T06:24:24;101947.94;;;21.80;56.52
70976;BME280;58635;51.198;6.010;2022-07-22T06:26:49;101947.47;;;21.83;56.78
70976;BME280;58635;51.198;6.010;2022-07-22T06:29:15;101945.69;;;21.89;56.46
70976;BME280;58635;51.198;6.010;2022-07-22T06:31:40;101955.78;;;21.92;56.72
70976;BME280;58635;51.198;6.010;2022-07-22T06:34:06;101946.59;;;21.95;56.53
70976;BME280;58635;51.198;6.010;2022-07-22T06:36:34;101952.97;;;21.99;56.52
70976;BME280;58635;51.198;6.010;2022-07-22T06:39:00;101953.28;;;22.02;56.36
70976;BME280;58635;51.198;6.010;2022-07-22T06:41:26;101954.63;;;22.05;56.37
70976;BME280;58635;51.198;6.010;2022-07-22T06:43:52;101944.44;;;22.08;56.52
70976;BME280;58635;51.198;6.010;2022-07-22T06:46:17;101951.84;;;22.11;56.04
70976;BME280;58635;51.198;6.010;2022-07-22T06:48:43;101952.50;;;22.18;55.79
70976;BME280;58635;51.198;6.010;2022-07-22T06:51:08;101956.56;;;22.26;55.58
70976;BME280;58635;51.198;6.010;2022-07-22T06:53:33;101960.06;;;22.32;55.22
70976;BME280;58635;51.198;6.010;2022-07-22T06:55:59;101951.41;;;22.36;55.01
70976;BME280;58635;51.198;6.010;2022-07-22T06:58:24;101943.81;;;22.40;55.17
70976;BME280;58635;51.198;6.010;2022-07-22T07:00:50;101943.88;;;22.45;55.02
70976;BME280;58635;51.198;6.010;2022-07-22T07:03:15;101943.97;;;22.50;54.82
70976;BME280;58635;51.198;6.010;2022-07-22T07:05:41;101947.50;;;22.61;54.64
70976;BME280;58635;51.198;6.010;2022-07-22T07:08:06;101946.28;;;22.68;54.62
70976;BME280;58635;51.198;6.010;2022-07-22T07:10:32;101939.00;;;22.75;54.44
70976;BME280;58635;51.198;6.010;2022-07-22T07:12:58;101934.88;;;22.85;53.85
70976;BME280;58635;51.198;6.010;2022-07-22T07:15:26;101939.81;;;22.98;54.06
70976;BME280;58635;51.198;6.010;2022-07-22T07:17:53;101930.69;;;23.11;53.39
70976;BME280;58635;51.198;6.010;2022-07-22T07:20:19;101934.25;;;23.26;52.83
70976;BME280;58635;51.198;6.010;2022-07-22T07:22:44;101932.59;;;23.47;52.57
70976;BME280;58635;51.198;6.010;2022-07-22T07:25:10;101937.03;;;23.69;52.36
70976;BME280;58635;51.198;6.010;2022-07-22T07:27:36;101935.56;;;23.83;51.70
70976;BME280;58635;51.198;6.010;2022-07-22T07:30:03;101927.09;;;23.86;51.79
70976;BME280;58635;51.198;6.010;2022-07-22T07:32:29;101929.53;;;23.92;51.50
70976;BME280;58635;51.198;6.010;2022-07-22T07:34:54;101928.50;;;23.99;51.01
70976;BME280;58635;51.198;6.010;2022-07-22T07:37:20;101925.13;;;24.08;50.90
70976;BME280;58635;51.198;6.010;2022-07-22T07:39:45;101916.97;;;24.15;50.97
70976;BME280;58635;51.198;6.010;2022-07-22T07:42:11;101915.41;;;24.19;50.38
70976;BME280;58635;51.198;6.010;2022-07-22T07:44:36;101912.25;;;24.22;50.41
70976;BME280;58635;51.198;6.010;2022-07-22T07:47:02;101915.44;;;24.24;50.22
70976;BME280;58635;51.198;6.010;2022-07-22T07:49:27;101909.66;;;24.27;50.08
70976;BME280;58635;51.198;6.010;2022-07-22T07:51:53;101904.13;;;24.34;49.99
70976;BME280;58635;51.198;6.010;2022-07-22T07:54:19;101912.88;;;24.34;49.87
70976;BME280;58635;51.198;6.010;2022-07-22T07:56:44;101915.78;;;24.33;49.87
70976;BME280;58635;51.198;6.010;2022-07-22T07:59:10;101924.25;;;24.35;50.03
70976;BME280;58635;51.198;6.010;2022-07-22T08:01:35;101922.38;;;24.35;49.62
70976;BME280;58635;51.198;6.010;2022-07-22T08:04:01;101923.47;;;24.39;50.09
70976;BME280;58635;51.198;6.010;2022-07-22T08:06:27;101922.69;;;24.44;49.56
70976;BME280;58635;51.198;6.010;2022-07-22T08:08:52;101925.66;;;24.53;49.60
70976;BME280;58635;51.198;6.010;2022-07-22T08:11:18;101929.38;;;24.62;49.60
70976;BME280;58635;51.198;6.010;2022-07-22T08:13:43;101918.81;;;24.67;49.52
70976;BME280;58635;51.198;6.010;2022-07-22T08:16:08;101928.91;;;24.75;49.27
70976;BME280;58635;51.198;6.010;2022-07-22T08:18:34;101928.38;;;24.83;48.91
70976;BME280;58635;51.198;6.010;2022-07-22T08:20:59;101927.31;;;24.84;48.70
70976;BME280;58635;51.198;6.010;2022-07-22T08:23:25;101925.75;;;24.88;48.48
70976;BME280;58635;51.198;6.010;2022-07-22T08:25:50;101929.19;;;24.94;48.17
70976;BME280;58635;51.198;6.010;2022-07-22T08:28:15;101932.44;;;25.01;48.59
70976;BME280;58635;51.198;6.010;2022-07-22T08:30:41;101935.34;;;25.10;48.08
70976;BME280;58635;51.198;6.010;2022-07-22T08:33:08;101928.22;;;25.15;47.96
70976;BME280;58635;51.198;6.010;2022-07-22T08:35:34;101923.19;;;25.24;47.48
70976;BME280;58635;51.198;6.010;2022-07-22T08:38:00;101920.78;;;25.32;47.09
70976;BME280;58635;51.198;6.010;2022-07-22T08:40:25;101924.78;;;25.40;47.10
70976;BME280;58635;51.198;6.010;2022-07-22T08:42:51;101925.31;;;25.47;46.75
70976;BME280;58635;51.198;6.010;2022-07-22T08:45:17;101926.34;;;25.56;46.45
70976;BME280;58635;51.198;6.010;2022-07-22T08:47:47;101920.03;;;25.73;46.33
70976;BME280;58635;51.198;6.010;2022-07-22T08:50:13;101911.75;;;26.00;46.32
70976;BME280;58635;51.198;6.010;2022-07-22T08:52:39;101910.88;;;26.30;45.70
70976;BME280;58635;51.198;6.010;2022-07-22T08:55:06;101912.97;;;26.43;45.02
70976;BME280;58635;51.198;6.010;2022-07-22T08:57:32;101919.31;;;26.47;45.04
70976;BME280;58635;51.198;6.010;2022-07-22T08:59:59;101905.19;;;26.57;44.62
70976;BME280;58635;51.198;6.010;2022-07-22T09:02:26;101900.03;;;26.75;44.84
70976;BME280;58635;51.198;6.010;2022-07-22T09:05:02;101901.25;;;26.93;44.75
70976;BME280;58635;51.198;6.010;2022-07-22T09:07:34;101902.47;;;27.11;44.32
70976;BME280;58635;51.198;6.010;2022-07-22T09:10:01;101895.50;;;27.20;44.98
70976;BME280;58635;51.198;6.010;2022-07-22T09:12:27;101900.19;;;27.33;44.13
70976;BME280;58635;51.198;6.010;2022-07-22T09:14:59;101893.75;;;27.39;43.52
70976;BME280;58635;51.198;6.010;2022-07-22T09:19:57;101895.41;;;27.35;42.93
70976;BME280;58635;51.198;6.010;2022-07-22T09:22:37;101900.84;;;27.49;42.99
70976;BME280;58635;51.198;6.010;2022-07-22T09:27:52;101897.88;;;27.85;42.47
70976;BME280;58635;51.198;6.010;2022-07-22T09:30:21;101895.16;;;27.90;41.64
70976;BME280;58635;51.198;6.010;2022-07-22T09:32:48;101891.13;;;27.92;41.40
70976;BME280;58635;51.198;6.010;2022-07-22T09:35:14;101899.69;;;27.89;40.95
70976;BME280;58635;51.198;6.010;2022-07-22T09:40:26;101888.84;;;27.81;41.12
70976;BME280;58635;51.198;6.010;2022-07-22T09:42:57;101891.53;;;27.81;40.96
70976;BME280;58635;51.198;6.010;2022-07-22T09:45:25;101885.75;;;27.74;40.98
70976;BME280;58635;51.198;6.010;2022-07-22T09:47:54;101890.91;;;27.65;41.42
70976;BME280;58635;51.198;6.010;2022-07-22T09:50:22;101883.75;;;27.60;41.25
70976;BME280;58635;51.198;6.010;2022-07-22T09:52:50;101883.84;;;27.50;41.38
70976;BME280;58635;51.198;6.010;2022-07-22T09:55:19;101884.50;;;27.37;41.29
70976;BME280;58635;51.198;6.010;2022-07-22T09:57:45;101881.41;;;27.25;41.28
70976;BME280;58635;51.198;6.010;2022-07-22T10:00:16;101871.59;;;27.20;41.03
70976;BME280;58635;51.198;6.010;2022-07-22T10:05:23;101873.09;;;26.97;41.77
70976;BME280;58635;51.198;6.010;2022-07-22T10:07:50;101861.75;;;26.87;41.92
70976;BME280;58635;51.198;6.010;2022-07-22T10:10:18;101861.28;;;26.79;41.92
70976;BME280;58635;51.198;6.010;2022-07-22T10:12:45;101856.25;;;26.78;42.00
70976;BME280;58635;51.198;6.010;2022-07-22T10:15:12;101851.72;;;26.78;41.39
70976;BME280;58635;51.198;6.010;2022-07-22T10:17:41;101854.91;;;26.80;41.53
70976;BME280;58635;51.198;6.010;2022-07-22T10:20:08;101869.47;;;26.83;41.83
70976;BME280;58635;51.198;6.010;2022-07-22T10:25:11;101864.84;;;26.99;41.70
70976;BME280;58635;51.198;6.010;2022-07-22T10:27:57;101869.09;;;27.05;41.71
70976;BME280;58635;51.198;6.010;2022-07-22T10:30:25;101863.22;;;27.08;40.86
70976;BME280;58635;51.198;6.010;2022-07-22T10:35:31;101873.31;;;27.06;41.09
70976;BME280;58635;51.198;6.010;2022-07-22T10:38:00;101871.97;;;27.08;41.30
70976;BME280;58635;51.198;6.010;2022-07-22T10:40:29;101864.47;;;27.16;41.12
70976;BME280;58635;51.198;6.010;2022-07-22T10:45:37;101875.53;;;27.28;41.15
70976;BME280;58635;51.198;6.010;2022-07-22T10:48:06;101870.94;;;27.38;41.16
70976;BME280;58635;51.198;6.010;2022-07-22T10:53:20;101863.38;;;27.51;40.44
70976;BME280;58635;51.198;6.010;2022-07-22T10:56:00;101853.53;;;27.51;40.65
70976;BME280;58635;51.198;6.010;2022-07-22T11:00:59;101852.56;;;27.71;40.62
70976;BME280;58635;51.198;6.010;2022-07-22T11:03:25;101843.53;;;27.72;40.74
70976;BME280;58635;51.198;6.010;2022-07-22T11:05:50;101841.53;;;27.83;40.87
70976;BME280;58635;51.198;6.010;2022-07-22T11:08:16;101841.28;;;28.03;40.56
70976;BME280;58635;51.198;6.010;2022-07-22T11:10:48;101841.13;;;28.37;39.58
70976;BME280;58635;51.198;6.010;2022-07-22T11:13:29;101836.59;;;28.57;39.94
70976;BME280;58635;51.198;6.010;2022-07-22T11:15:55;101838.16;;;28.76;38.90
70976;BME280;58635;51.198;6.010;2022-07-22T11:18:21;101842.06;;;28.65;38.45
70976;BME280;58635;51.198;6.010;2022-07-22T11:20:47;101830.34;;;28.47;38.23
70976;BME280;58635;51.198;6.010;2022-07-22T11:23:13;101829.13;;;28.40;39.23
70976;BME280;58635;51.198;6.010;2022-07-22T11:25:38;101829.19;;;28.35;38.80
70976;BME280;58635;51.198;6.010;2022-07-22T11:28:04;101840.41;;;28.32;38.97
70976;BME280;58635;51.198;6.010;2022-07-22T11:30:31;101850.53;;;28.30;38.40
70976;BME280;58635;51.198;6.010;2022-07-22T11:32:57;101840.19;;;28.28;38.23
70976;BME280;58635;51.198;6.010;2022-07-22T11:35:22;101831.06;;;28.34;37.73
70976;BME280;58635;51.198;6.010;2022-07-22T11:37:57;101823.44;;;28.46;37.66
70976;BME280;58635;51.198;6.010;2022-07-22T11:40:22;101821.03;;;28.64;37.52
70976;BME280;58635;51.198;6.010;2022-07-22T11:43:00;101822.97;;;28.77;36.77
70976;BME280;58635;51.198;6.010;2022-07-22T11:45:25;101820.25;;;28.82;36.55
70976;BME280;58635;51.198;6.010;2022-07-22T11:47:51;101816.28;;;28.79;36.64
70976;BME280;58635;51.198;6.010;2022-07-22T11:50:16;101811.81;;;28.94;36.83
70976;BME280;58635;51.198;6.010;2022-07-22T11:52:51;101804.16;;;29.06;35.77
70976;BME280;58635;51.198;6.010;2022-07-22T11:55:17;101804.53;;;28.99;36.32
70976;BME280;58635;51.198;6.010;2022-07-22T11:57:47;101798.69;;;28.97;36.30
70976;BME280;58635;51.198;6.010;2022-07-22T12:00:13;101795.06;;;29.07;37.33
70976;BME280;58635;51.198;6.010;2022-07-22T12:02:40;101796.19;;;29.33;36.68
70976;BME280;58635;51.198;6.010;2022-07-22T12:05:06;101787.34;;;29.52;35.79
70976;BME280;58635;51.198;6.010;2022-07-22T12:07:31;101789.63;;;29.72;35.89
70976;BME280;58635;51.198;6.010;2022-07-22T12:09:57;101789.69;;;29.81;35.94
70976;BME280;58635;51.198;6.010;2022-07-22T12:12:38;101789.00;;;29.89;35.17
70976;BME280;58635;51.198;6.010;2022-07-22T12:15:05;101782.69;;;29.71;36.12
70976;BME280;58635;51.198;6.010;2022-07-22T12:17:32;101780.75;;;29.49;36.08
70976;BME280;58635;51.198;6.010;2022-07-22T12:20:09;101777.03;;;29.31;35.65
70976;BME280;58635;51.198;6.010;2022-07-22T12:22:44;101774.97;;;29.15;35.97
70976;BME280;58635;51.198;6.010;2022-07-22T12:25:10;101776.31;;;29.12;36.32
70976;BME280;58635;51.198;6.010;2022-07-22T12:27:35;101768.63;;;29.10;35.99
70976;BME280;58635;51.198;6.010;2022-07-22T12:30:11;101769.53;;;29.20;35.32
70976;BME280;58635;51.198;6.010;2022-07-22T12:32:46;101768.94;;;29.23;35.25
70976;BME280;58635;51.198;6.010;2022-07-22T12:35:14;101767.38;;;29.35;35.94
70976;BME280;58635;51.198;6.010;2022-07-22T12:40:06;101763.66;;;29.50;35.22
70976;BME280;58635;51.198;6.010;2022-07-22T12:42:34;101761.53;;;29.33;35.44
70976;BME280;58635;51.198;6.010;2022-07-22T12:52:56;101762.56;;;29.65;35.50
70976;BME280;58635;51.198;6.010;2022-07-22T12:55:22;101759.47;;;29.85;35.51
70976;BME280;58635;51.198;6.010;2022-07-22T12:57:48;101760.09;;;30.05;35.13
70976;BME280;58635;51.198;6.010;2022-07-22T13:00:23;101754.41;;;30.34;34.56
70976;BME280;58635;51.198;6.010;2022-07-22T13:02:50;101750.63;;;30.57;34.04
70976;BME280;58635;51.198;6.010;2022-07-22T13:05:15;101752.38;;;30.84;34.43
70976;BME280;58635;51.198;6.010;2022-07-22T13:07:42;101748.88;;;31.06;33.57
70976;BME280;58635;51.198;6.010;2022-07-22T13:10:09;101746.06;;;31.11;33.03
70976;BME280;58635;51.198;6.010;2022-07-22T13:12:35;101744.31;;;31.06;33.36
70976;BME280;58635;51.198;6.010;2022-07-22T13:15:00;101746.03;;;31.02;33.51
70976;BME280;58635;51.198;6.010;2022-07-22T13:17:26;101747.72;;;30.98;33.86
70976;BME280;58635;51.198;6.010;2022-07-22T13:19:51;101747.72;;;30.98;33.79
70976;BME280;58635;51.198;6.010;2022-07-22T13:22:16;101751.66;;;30.92;33.14
70976;BME280;58635;51.198;6.010;2022-07-22T13:24:42;101749.31;;;30.68;33.96
70976;BME280;58635;51.198;6.010;2022-07-22T13:27:07;101752.81;;;30.55;33.59
70976;BME280;58635;51.198;6.010;2022-07-22T13:29:33;101741.16;;;30.51;34.31
70976;BME280;58635;51.198;6.010;2022-07-22T13:31:58;101740.91;;;30.61;33.85
70976;BME280;58635;51.198;6.010;2022-07-22T13:34:24;101745.59;;;30.78;34.00
70976;BME280;58635;51.198;6.010;2022-07-22T13:36:49;101744.59;;;30.96;33.55
70976;BME280;58635;51.198;6.010;2022-07-22T13:39:14;101743.63;;;30.92;33.52
70976;BME280;58635;51.198;6.010;2022-07-22T13:41:40;101741.56;;;30.89;33.52
70976;BME280;58635;51.198;6.010;2022-07-22T13:44:05;101746.78;;;30.94;33.44
70976;BME280;58635;51.198;6.010;2022-07-22T13:46:35;101744.22;;;30.89;33.42
70976;BME280;58635;51.198;6.010;2022-07-22T13:49:00;101748.78;;;30.89;33.47
70976;BME280;58635;51.198;6.010;2022-07-22T13:51:26;101744.44;;;31.01;33.51
70976;BME280;58635;51.198;6.010;2022-07-22T13:53:51;101729.59;;;31.18;33.81
70976;BME280;58635;51.198;6.010;2022-07-22T13:56:17;101714.53;;;31.22;33.45
70976;BME280;58635;51.198;6.010;2022-07-22T13:58:42;101720.09;;;31.03;33.28
70976;BME280;58635;51.198;6.010;2022-07-22T14:01:08;101713.16;;;30.93;33.41
70976;BME280;58635;51.198;6.010;2022-07-22T14:03:35;101719.44;;;30.97;33.64
70976;BME280;58635;51.198;6.010;2022-07-22T14:06:02;101714.25;;;31.01;32.83
70976;BME280;58635;51.198;6.010;2022-07-22T14:08:28;101720.38;;;31.01;33.06
70976;BME280;58635;51.198;6.010;2022-07-22T14:10:53;101724.66;;;31.02;32.82
70976;BME280;58635;51.198;6.010;2022-07-22T14:13:18;101721.47;;;30.92;32.86
70976;BME280;58635;51.198;6.010;2022-07-22T14:15:44;101717.50;;;30.89;33.53
70976;BME280;58635;51.198;6.010;2022-07-22T14:18:09;101721.13;;;30.84;33.31
70976;BME280;58635;51.198;6.010;2022-07-22T14:20:35;101719.25;;;30.63;33.16
70976;BME280;58635;51.198;6.010;2022-07-22T14:23:01;101709.13;;;30.51;33.72
70976;BME280;58635;51.198;6.010;2022-07-22T14:25:27;101700.47;;;30.45;33.48